Time,TemperatureF,DewpointF,PressureIn,WindDirection,WindDirectionDegrees,WindSpeedMPH,WindSpeedGustMPH,Humidity,HourlyPrecipIn,Conditions,Clouds,dailyrainin,SoftwareType,DateUTC
2013-07-21 00:01:00,74.2,58.4,29.86,SSW,203,0.0,0.9,58,0.00,,,0.00,WUHU216HW,2013-07-21 05:01:00,
2013-07-21 00:06:00,74.0,56.2,29.86,SSW,203,0.4,0.4,54,0.00,,,0.00,WUHU216HW,2013-07-21 05:06:00,
2013-07-21 00:11:00,73.6,54.4,29.87,WSW,248,0.0,0.9,51,0.00,,,0.00,WUHU216HW,2013-07-21 05:11:00,
2013-07-21 00:16:00,73.4,54.6,29.87,WSW,248,0.0,0.9,52,0.00,,,0.00,WUHU216HW,2013-07-21 05:16:00,
2013-07-21 00:21:00,73.4,55.2,29.87,WSW,248,0.3,0.7,53,0.00,,,0.00,WUHU216HW,2013-07-21 05:21:00,
2013-07-21 00:26:00,73.3,55.5,29.87,WSW,248,0.0,0.7,54,0.00,,,0.00,WUHU216HW,2013-07-21 05:26:00,
2013-07-21 00:31:00,73.1,55.8,29.87,WSW,248,0.6,0.7,55,0.00,,,0.00,WUHU216HW,2013-07-21 05:31:00,
2013-07-21 00:36:00,72.9,55.7,29.87,WSW,248,0.3,0.7,55,0.00,,,0.00,WUHU216HW,2013-07-21 05:36:00,
2013-07-21 00:41:00,72.7,55.5,29.86,WSW,248,0.4,1.1,55,0.00,,,0.00,WUHU216HW,2013-07-21 05:41:00,
2013-07-21 00:46:00,72.4,54.7,29.86,WSW,248,0.6,1.1,54,0.00,,,0.00,WUHU216HW,2013-07-21 05:46:00,
2013-07-21 00:51:00,72.4,55.2,29.86,WSW,248,0.4,0.9,55,0.00,,,0.00,WUHU216HW,2013-07-21 05:51:00,
2013-07-21 00:56:00,72.2,54.6,29.86,WSW,248,0.4,0.9,54,0.00,,,0.00,WUHU216HW,2013-07-21 05:56:00,
2013-07-21 01:01:00,72.2,54.6,29.86,WSW,248,0.4,0.7,54,0.00,,,0.00,WUHU216HW,2013-07-21 06:01:00,
2013-07-21 01:06:00,72.0,53.8,29.86,WSW,248,0.3,0.7,53,0.00,,,0.00,WUHU216HW,2013-07-21 06:06:00,
2013-07-21 01:11:00,72.0,53.8,29.86,SW,225,0.3,0.7,53,0.00,,,0.00,WUHU216HW,2013-07-21 06:11:00,
2013-07-21 01:16:00,72.2,53.6,29.85,WSW,248,0.2,0.7,52,0.00,,,0.00,WUHU216HW,2013-07-21 06:16:00,
2013-07-21 01:21:00,72.2,54.0,29.85,WSW,248,0.0,0.4,53,0.00,,,0.00,WUHU216HW,2013-07-21 06:21:00,
2013-07-21 01:26:00,72.4,53.6,29.86,WSW,248,0.4,0.7,52,0.00,,,0.00,WUHU216HW,2013-07-21 06:26:00,
2013-07-21 01:31:00,72.4,53.6,29.86,WSW,248,0.2,0.9,52,0.00,,,0.00,WUHU216HW,2013-07-21 06:31:00,
2013-07-21 01:36:00,72.4,53.6,29.85,WSW,248,0.0,0.9,52,0.00,,,0.00,WUHU216HW,2013-07-21 06:36:00,
2013-07-21 01:41:00,72.5,53.8,29.85,WSW,248,0.0,0.0,52,0.00,,,0.00,WUHU216HW,2013-07-21 06:41:00,
2013-07-21 01:46:00,72.5,53.8,29.85,WSW,248,0.0,0.0,52,0.00,,,0.00,WUHU216HW,2013-07-21 06:46:00,
2013-07-21 01:51:00,72.4,53.6,29.85,WSW,248,0.4,0.4,52,0.00,,,0.00,WUHU216HW,2013-07-21 06:51:00,
2013-07-21 01:56:00,72.4,53.6,29.85,WSW,248,0.3,0.7,52,0.00,,,0.00,WUHU216HW,2013-07-21 06:56:00,
2013-07-21 02:01:00,72.4,53.6,29.85,WSW,248,0.4,1.1,52,0.00,,,0.00,WUHU216HW,2013-07-21 07:01:00,
2013-07-21 02:06:00,72.2,53.6,29.85,WSW,248,0.3,1.1,52,0.00,,,0.00,WUHU216HW,2013-07-21 07:06:00,
2013-07-21 02:11:00,71.8,53.2,29.85,WSW,248,0.0,0.4,52,0.00,,,0.00,WUHU216HW,2013-07-21 07:11:00,
2013-07-21 02:16:00,71.8,49.2,29.85,WSW,248,0.2,0.7,45,0.00,,,0.00,WUHU216HW,2013-07-21 07:16:00,
2013-07-21 02:21:00,72.0,48.8,29.85,WSW,248,0.0,0.7,44,0.00,,,0.00,WUHU216HW,2013-07-21 07:21:00,
2013-07-21 02:26:00,72.0,49.4,29.85,WSW,248,0.4,0.4,45,0.00,,,0.00,WUHU216HW,2013-07-21 07:26:00,
2013-07-21 02:31:00,72.0,49.4,29.85,WSW,248,0.0,0.4,45,0.00,,,0.00,WUHU216HW,2013-07-21 07:31:00,
2013-07-21 02:36:00,72.0,49.4,29.85,WSW,248,0.0,0.2,45,0.00,,,0.00,WUHU216HW,2013-07-21 07:36:00,
2013-07-21 02:41:00,72.2,47.2,29.85,WSW,248,0.0,0.0,41,0.00,,,0.00,WUHU216HW,2013-07-21 07:41:00,
2013-07-21 02:46:00,72.4,45.3,29.84,WSW,248,0.0,0.0,38,0.00,,,0.00,WUHU216HW,2013-07-21 07:46:00,
2013-07-21 02:51:00,72.5,46.2,29.85,WSW,248,0.0,0.0,39,0.00,,,0.00,WUHU216HW,2013-07-21 07:51:00,
2013-07-21 02:56:00,72.5,47.5,29.85,WSW,248,0.0,0.0,41,0.00,,,0.00,WUHU216HW,2013-07-21 07:56:00,
2013-07-21 03:01:00,72.5,47.5,29.85,WSW,248,0.0,0.0,41,0.00,,,0.00,WUHU216HW,2013-07-21 08:01:00,
2013-07-21 03:06:00,72.4,46.7,29.85,WSW,248,0.0,0.2,40,0.00,,,0.00,WUHU216HW,2013-07-21 08:06:00,
2013-07-21 03:11:00,72.4,46.7,29.85,WSW,248,0.0,0.2,40,0.00,,,0.00,WUHU216HW,2013-07-21 08:11:00,
2013-07-21 03:16:00,72.4,45.3,29.84,WSW,248,0.0,0.0,38,0.00,,,0.00,WUHU216HW,2013-07-21 08:16:00,
2013-07-21 03:21:00,72.2,45.8,29.84,WSW,248,0.0,0.0,39,0.00,,,0.00,WUHU216HW,2013-07-21 08:21:00,
2013-07-21 03:26:00,72.0,45.6,29.84,WSW,248,0.0,0.0,39,0.00,,,0.00,WUHU216HW,2013-07-21 08:26:00,
2013-07-21 03:31:00,72.0,44.9,29.84,WSW,248,0.0,0.0,38,0.00,,,0.00,WUHU216HW,2013-07-21 08:31:00,
2013-07-21 03:36:00,72.0,44.2,29.84,WSW,248,0.0,0.0,37,0.00,,,0.00,WUHU216HW,2013-07-21 08:36:00,
2013-07-21 03:41:00,71.8,43.3,29.83,WSW,248,0.0,0.0,36,0.00,,,0.00,WUHU216HW,2013-07-21 08:41:00,
2013-07-21 03:46:00,71.6,43.8,29.83,WSW,248,0.0,0.0,37,0.00,,,0.00,WUHU216HW,2013-07-21 08:46:00,
2013-07-21 03:51:00,71.5,42.9,29.83,WSW,248,0.0,0.0,36,0.00,,,0.00,WUHU216HW,2013-07-21 08:51:00,
2013-07-21 03:56:00,71.3,43.6,29.83,WSW,248,0.0,0.0,37,0.00,,,0.00,WUHU216HW,2013-07-21 08:56:00,
2013-07-21 04:01:00,71.3,42.0,29.83,WSW,248,0.0,0.0,35,0.00,,,0.00,WUHU216HW,2013-07-21 09:01:00,
2013-07-21 04:06:00,71.3,39.9,29.83,WSW,248,0.0,0.0,32,0.00,,,0.00,WUHU216HW,2013-07-21 09:06:00,
2013-07-21 04:11:00,71.3,38.3,29.83,WSW,248,0.0,0.0,30,0.00,,,0.00,WUHU216HW,2013-07-21 09:11:00,
2013-07-21 04:16:00,71.3,38.3,29.83,WSW,248,0.0,0.0,30,0.00,,,0.00,WUHU216HW,2013-07-21 09:16:00,
2013-07-21 04:21:00,71.6,38.7,29.83,WSW,248,0.0,0.0,30,0.00,,,0.00,WUHU216HW,2013-07-21 09:21:00,
2013-07-21 04:26:00,71.8,40.3,29.83,WSW,248,0.0,0.4,32,0.00,,,0.00,WUHU216HW,2013-07-21 09:26:00,
2013-07-21 04:31:00,71.8,41.0,29.83,WSW,248,0.0,0.4,33,0.00,,,0.00,WUHU216HW,2013-07-21 09:31:00,
2013-07-21 04:36:00,71.6,41.0,29.82,WSW,248,0.0,0.0,33,0.00,,,0.00,WUHU216HW,2013-07-21 09:36:00,
2013-07-21 04:41:00,71.5,40.8,29.82,WSW,248,0.0,0.0,33,0.00,,,0.00,WUHU216HW,2013-07-21 09:41:00,
2013-07-21 04:46:00,71.3,41.3,29.82,WSW,248,0.3,0.4,34,0.00,,,0.00,WUHU216HW,2013-07-21 09:46:00,
2013-07-21 04:51:00,71.1,39.7,29.81,SW,225,0.2,0.4,32,0.00,,,0.00,WUHU216HW,2013-07-21 09:51:00,
2013-07-21 04:56:00,71.1,39.0,29.81,SW,225,0.4,0.7,31,0.00,,,0.00,WUHU216HW,2013-07-21 09:56:00,
2013-07-21 05:01:00,71.1,35.2,29.79,ESE,113,1.1,1.6,27,0.00,,,0.00,WUHU216HW,2013-07-21 10:01:00,
2013-07-21 05:06:00,71.3,33.3,29.78,ESE,117,2.0,3.8,25,0.00,,,0.00,WUHU216HW,2013-07-21 10:06:00,
2013-07-21 05:11:00,71.6,32.6,29.77,East,90,3.4,3.8,24,0.00,,,0.00,WUHU216HW,2013-07-21 10:11:00,
2013-07-21 05:16:00,72.0,34.9,29.76,SSE,158,1.8,3.6,26,0.00,,,0.00,WUHU216HW,2013-07-21 10:16:00,
2013-07-21 05:21:00,72.0,36.9,29.77,SSE,159,1.7,3.4,28,0.00,,,0.00,WUHU216HW,2013-07-21 10:21:00,
2013-07-21 05:26:00,72.2,37.1,29.76,ESE,123,1.9,2.9,28,0.00,,,0.00,WUHU216HW,2013-07-21 10:26:00,
2013-07-21 05:31:00,72.2,38.1,29.75,South,180,2.5,3.6,29,0.00,,,0.00,WUHU216HW,2013-07-21 10:31:00,
2013-07-21 05:36:00,72.4,37.3,29.75,South,180,2.2,3.6,28,0.00,,,0.00,WUHU216HW,2013-07-21 10:36:00,
2013-07-21 05:41:00,72.5,39.4,29.75,SE,135,1.1,3.6,30,0.00,,,0.00,WUHU216HW,2013-07-21 10:41:00,
2013-07-21 05:46:00,72.5,40.1,29.77,SSW,203,1.1,3.6,31,0.00,,,0.00,WUHU216HW,2013-07-21 10:46:00,
2013-07-21 05:51:00,72.4,39.2,29.78,SW,225,0.9,2.0,30,0.00,,,0.00,WUHU216HW,2013-07-21 10:51:00,
2013-07-21 05:56:00,72.4,40.1,29.78,SW,214,1.1,2.0,31,0.00,,,0.00,WUHU216HW,2013-07-21 10:56:00,
2013-07-21 06:01:00,72.2,38.1,29.79,WSW,251,1.6,3.8,29,0.00,,,0.00,WUHU216HW,2013-07-21 11:01:00,
2013-07-21 06:06:00,72.2,37.1,29.80,WSW,245,2.2,3.8,28,0.00,,,0.00,WUHU216HW,2013-07-21 11:06:00,
2013-07-21 06:11:00,72.2,33.0,29.81,SW,221,2.1,4.0,24,0.00,,,0.00,WUHU216HW,2013-07-21 11:11:00,
2013-07-21 06:16:00,72.2,35.0,29.81,SSW,203,0.5,4.0,26,0.00,,,0.00,WUHU216HW,2013-07-21 11:16:00,
2013-07-21 06:21:00,72.2,37.1,29.81,SW,214,1.1,2.0,28,0.00,,,0.00,WUHU216HW,2013-07-21 11:21:00,
2013-07-21 06:26:00,72.0,38.0,29.81,SW,225,0.0,1.8,29,0.00,,,0.00,WUHU216HW,2013-07-21 11:26:00,
2013-07-21 06:31:00,71.8,33.8,29.81,SW,225,0.0,0.4,25,0.00,,,0.00,WUHU216HW,2013-07-21 11:31:00,
2013-07-21 06:36:00,71.6,31.5,29.81,SW,225,0.2,0.4,23,0.00,,,0.00,WUHU216HW,2013-07-21 11:36:00,
2013-07-21 06:41:00,72.0,33.8,29.81,WSW,248,0.0,0.9,25,0.00,,,0.00,WUHU216HW,2013-07-21 11:41:00,
2013-07-21 06:46:00,71.8,34.7,29.81,WSW,248,0.2,0.9,26,0.00,,,0.00,WUHU216HW,2013-07-21 11:46:00,
2013-07-21 06:51:00,72.2,35.0,29.82,WSW,248,0.0,0.4,26,0.00,,,0.00,WUHU216HW,2013-07-21 11:51:00,
2013-07-21 06:56:00,72.4,36.2,29.82,WSW,248,0.7,1.1,27,0.00,,,0.00,WUHU216HW,2013-07-21 11:56:00,
2013-07-21 07:01:00,72.2,37.1,29.82,WSW,248,0.3,1.1,28,0.00,,,0.00,WUHU216HW,2013-07-21 12:01:00,
2013-07-21 07:06:00,72.4,38.3,29.82,WNW,293,1.1,1.1,29,0.00,,,0.00,WUHU216HW,2013-07-21 12:06:00,
2013-07-21 07:11:00,72.5,38.4,29.82,NNW,338,0.7,1.3,29,0.00,,,0.00,WUHU216HW,2013-07-21 12:11:00,
2013-07-21 07:16:00,72.5,38.4,29.83,NNW,338,0.0,1.3,29,0.00,,,0.00,WUHU216HW,2013-07-21 12:16:00,
2013-07-21 07:21:00,72.7,37.5,29.82,NNW,338,0.6,0.9,28,0.00,,,0.00,WUHU216HW,2013-07-21 12:21:00,
2013-07-21 07:26:00,73.1,38.9,29.82,NNW,338,0.9,0.9,29,0.00,,,0.00,WUHU216HW,2013-07-21 12:26:00,
2013-07-21 07:31:00,74.2,39.8,29.82,NNW,338,0.0,0.9,29,0.00,,,0.00,WUHU216HW,2013-07-21 12:31:00,
2013-07-21 07:36:00,75.1,43.8,29.82,NNW,338,0.0,0.9,33,0.00,,,0.00,WUHU216HW,2013-07-21 12:36:00,
2013-07-21 07:41:00,74.7,44.3,29.82,NNW,338,0.0,0.4,34,0.00,,,0.00,WUHU216HW,2013-07-21 12:41:00,
2013-07-21 07:46:00,75.2,43.3,29.82,NNW,338,0.4,0.4,32,0.00,,,0.00,WUHU216HW,2013-07-21 12:46:00,
2013-07-21 07:51:00,78.8,48.7,29.82,NNW,338,0.9,0.9,35,0.00,,,0.00,WUHU216HW,2013-07-21 12:51:00,
2013-07-21 07:56:00,82.1,54.7,29.82,NNW,338,0.0,1.1,39,0.00,,,0.00,WUHU216HW,2013-07-21 12:56:00,
2013-07-21 08:01:00,83.9,59.6,29.83,WSW,248,0.3,1.3,44,0.00,,,0.00,WUHU216HW,2013-07-21 13:01:00,
2013-07-21 08:06:00,85.0,62.5,29.82,WSW,248,0.2,1.3,47,0.00,,,0.00,WUHU216HW,2013-07-21 13:06:00,
2013-07-21 08:11:00,85.0,65.4,29.83,WSW,244,0.9,2.0,52,0.00,,,0.00,WUHU216HW,2013-07-21 13:11:00,
2013-07-21 08:16:00,84.2,65.8,29.83,NNW,338,1.1,2.7,54,0.00,,,0.00,WUHU216HW,2013-07-21 13:16:00,
2013-07-21 08:21:00,83.7,65.8,29.83,West,270,0.8,3.4,55,0.00,,,0.00,WUHU216HW,2013-07-21 13:21:00,
2013-07-21 08:26:00,83.5,65.6,29.83,NNW,338,1.3,3.4,55,0.00,,,0.00,WUHU216HW,2013-07-21 13:26:00,
2013-07-21 08:31:00,83.3,65.4,29.83,West,262,1.1,2.7,55,0.00,,,0.00,WUHU216HW,2013-07-21 13:31:00,
2013-07-21 08:36:00,84.6,67.7,29.82,West,270,0.2,2.0,57,0.00,,,0.00,WUHU216HW,2013-07-21 13:36:00,
2013-07-21 08:41:00,86.8,69.7,29.83,West,270,1.1,1.8,57,0.00,,,0.00,WUHU216HW,2013-07-21 13:41:00,
2013-07-21 08:46:00,87.8,70.7,29.83,West,270,0.9,1.8,57,0.00,,,0.00,WUHU216HW,2013-07-21 13:46:00,
2013-07-21 08:51:00,88.4,70.1,29.83,SW,225,2.9,3.6,55,0.00,,,0.00,WUHU216HW,2013-07-21 13:51:00,
2013-07-21 08:56:00,88.2,70.0,29.83,West,271,2.8,4.0,55,0.00,,,0.00,WUHU216HW,2013-07-21 13:56:00,
2013-07-21 09:01:00,88.4,70.7,29.83,West,264,1.4,4.0,56,0.00,,,0.00,WUHU216HW,2013-07-21 14:01:00,
2013-07-21 09:06:00,88.2,70.6,29.83,SW,227,1.4,3.1,56,0.00,,,0.00,WUHU216HW,2013-07-21 14:06:00,
2013-07-21 09:11:00,88.6,70.8,29.83,West,262,2.0,2.7,56,0.00,,,0.00,WUHU216HW,2013-07-21 14:11:00,
2013-07-21 09:16:00,89.8,71.5,29.83,SW,217,1.7,4.7,55,0.00,,,0.00,WUHU216HW,2013-07-21 14:16:00,
2013-07-21 09:21:00,90.5,71.0,29.83,SSW,209,1.9,4.7,53,0.00,,,0.00,WUHU216HW,2013-07-21 14:21:00,
2013-07-21 09:26:00,91.1,70.9,29.83,SW,221,3.0,4.7,52,0.00,,,0.00,WUHU216HW,2013-07-21 14:26:00,
2013-07-21 09:31:00,91.8,72.2,29.82,SW,225,2.7,5.1,53,0.00,,,0.00,WUHU216HW,2013-07-21 14:31:00,
2013-07-21 09:36:00,91.3,70.6,29.82,SW,222,3.6,7.6,51,0.00,,,0.00,WUHU216HW,2013-07-21 14:36:00,
2013-07-21 09:41:00,91.3,70.6,29.82,WSW,248,4.7,9.2,51,0.00,,,0.00,WUHU216HW,2013-07-21 14:41:00,
2013-07-21 09:46:00,90.5,70.5,29.82,NW,315,3.4,9.2,52,0.00,,,0.00,WUHU216HW,2013-07-21 14:46:00,
2013-07-21 09:51:00,89.6,70.7,29.82,SSW,203,4.0,5.6,54,0.00,,,0.00,WUHU216HW,2013-07-21 14:51:00,
2013-07-21 09:56:00,89.1,70.3,29.82,WSW,251,2.8,5.6,54,0.00,,,0.00,WUHU216HW,2013-07-21 14:56:00,
2013-07-21 10:01:00,90.0,70.6,29.82,SW,216,3.8,6.3,53,0.00,,,0.00,WUHU216HW,2013-07-21 15:01:00,
2013-07-21 10:06:00,91.4,70.7,29.81,SW,230,4.1,6.3,51,0.00,,,0.00,WUHU216HW,2013-07-21 15:06:00,
2013-07-21 10:11:00,91.6,71.5,29.81,SW,225,2.9,5.8,52,0.00,,,0.00,WUHU216HW,2013-07-21 15:11:00,
2013-07-21 10:16:00,91.6,70.9,29.81,WSW,248,2.2,5.1,51,0.00,,,0.00,WUHU216HW,2013-07-21 15:16:00,
2013-07-21 10:21:00,92.0,71.8,29.81,SW,225,1.6,6.3,52,0.00,,,0.00,WUHU216HW,2013-07-21 15:21:00,
2013-07-21 10:26:00,93.6,72.7,29.81,SSW,203,1.3,6.3,51,0.00,,,0.00,WUHU216HW,2013-07-21 15:26:00,
2013-07-21 10:31:00,94.0,71.9,29.81,SW,225,3.6,4.3,49,0.00,,,0.00,WUHU216HW,2013-07-21 15:31:00,
2013-07-21 10:36:00,93.8,71.0,29.81,SW,225,4.0,6.9,48,0.00,,,0.00,WUHU216HW,2013-07-21 15:36:00,
2013-07-21 10:41:00,94.0,71.9,29.81,SW,235,3.1,6.9,49,0.00,,,0.00,WUHU216HW,2013-07-21 15:41:00,
2013-07-21 10:46:00,93.4,72.0,29.82,SW,221,2.7,6.3,50,0.00,,,0.00,WUHU216HW,2013-07-21 15:46:00,
2013-07-21 10:51:00,93.6,70.9,29.81,WSW,248,4.7,5.6,48,0.00,,,0.00,WUHU216HW,2013-07-21 15:51:00,
2013-07-21 10:56:00,93.2,71.2,29.81,SW,225,3.6,5.6,49,0.00,,,0.00,WUHU216HW,2013-07-21 15:56:00,
2013-07-21 11:01:00,93.2,71.8,29.81,West,270,3.6,5.4,50,0.00,,,0.00,WUHU216HW,2013-07-21 16:01:00,
2013-07-21 11:06:00,94.0,71.9,29.81,SSW,198,2.6,5.4,49,0.00,,,0.00,WUHU216HW,2013-07-21 16:06:00,
2013-07-21 11:11:00,94.3,71.6,29.81,West,270,3.4,6.3,48,0.00,,,0.00,WUHU216HW,2013-07-21 16:11:00,
2013-07-21 11:16:00,93.6,70.2,29.81,WNW,293,4.5,6.3,47,0.00,,,0.00,WUHU216HW,2013-07-21 16:16:00,
2013-07-21 11:21:00,92.9,71.5,29.81,West,270,1.8,6.3,50,0.00,,,0.00,WUHU216HW,2013-07-21 16:21:00,
2013-07-21 11:26:00,91.8,71.7,29.81,WSW,244,1.9,6.3,52,0.00,,,0.00,WUHU216HW,2013-07-21 16:26:00,
2013-07-21 11:31:00,92.3,71.0,29.81,WSW,251,3.6,5.8,50,0.00,,,0.00,WUHU216HW,2013-07-21 16:31:00,
2013-07-21 11:36:00,94.0,71.9,29.81,SW,233,4.3,5.8,49,0.00,,,0.00,WUHU216HW,2013-07-21 16:36:00,
2013-07-21 11:41:00,93.6,71.6,29.81,SW,234,4.2,6.7,49,0.00,,,0.00,WUHU216HW,2013-07-21 16:41:00,
2013-07-21 11:46:00,94.0,71.9,29.81,West,270,3.4,6.7,49,0.00,,,0.00,WUHU216HW,2013-07-21 16:46:00,
2013-07-21 11:51:00,94.7,71.9,29.81,SW,221,2.0,4.5,48,0.00,,,0.00,WUHU216HW,2013-07-21 16:51:00,
2013-07-21 11:56:00,95.2,72.5,29.81,WNW,293,3.8,3.8,48,0.00,,,0.00,WUHU216HW,2013-07-21 16:56:00,
2013-07-21 12:01:00,95.0,73.0,29.81,SSW,203,2.5,4.0,49,0.00,,,0.00,WUHU216HW,2013-07-21 17:01:00,
2013-07-21 12:06:00,95.0,71.7,29.80,West,266,1.5,4.0,47,0.00,,,0.00,WUHU216HW,2013-07-21 17:06:00,
2013-07-21 12:11:00,95.0,73.0,29.80,WSW,248,2.9,3.4,49,0.00,,,0.00,WUHU216HW,2013-07-21 17:11:00,
2013-07-21 12:16:00,95.4,72.6,29.80,SW,225,2.0,3.6,48,0.00,,,0.00,WUHU216HW,2013-07-21 17:16:00,
2013-07-21 12:21:00,95.0,73.6,29.80,SW,225,3.4,4.0,50,0.00,,,0.00,WUHU216HW,2013-07-21 17:21:00,
2013-07-21 12:26:00,96.1,71.9,29.80,WNW,293,4.0,4.0,46,0.00,,,0.00,WUHU216HW,2013-07-21 17:26:00,
2013-07-21 12:31:00,95.0,71.7,29.80,WSW,248,5.8,6.5,47,0.00,,,0.00,WUHU216HW,2013-07-21 17:31:00,
2013-07-21 12:36:00,95.0,73.0,29.79,SSE,158,1.6,6.5,49,0.00,,,0.00,WUHU216HW,2013-07-21 17:36:00,
2013-07-21 12:41:00,96.5,73.6,29.79,SW,225,2.5,5.8,48,0.00,,,0.00,WUHU216HW,2013-07-21 17:41:00,
2013-07-21 12:46:00,96.5,72.3,29.78,SW,225,2.5,5.8,46,0.00,,,0.00,WUHU216HW,2013-07-21 17:46:00,
2013-07-21 12:51:00,95.4,72.6,29.78,SSE,151,1.5,5.8,48,0.00,,,0.00,WUHU216HW,2013-07-21 17:51:00,
2013-07-21 12:56:00,95.6,72.1,29.78,WSW,248,5.4,6.5,47,0.00,,,0.00,WUHU216HW,2013-07-21 17:56:00,
2013-07-21 13:01:00,95.9,71.7,29.78,WSW,248,3.6,6.5,46,0.00,,,0.00,WUHU216HW,2013-07-21 18:01:00,
2013-07-21 13:06:00,95.8,72.3,29.78,WSW,255,1.6,6.3,47,0.00,,,0.00,WUHU216HW,2013-07-21 18:06:00,
2013-07-21 13:11:00,95.8,71.7,29.78,WSW,253,2.1,5.4,46,0.00,,,0.00,WUHU216HW,2013-07-21 18:11:00,
2013-07-21 13:16:00,95.4,71.9,29.77,South,180,2.5,5.4,47,0.00,,,0.00,WUHU216HW,2013-07-21 18:16:00,
2013-07-21 13:21:00,95.4,71.3,29.77,West,261,2.0,4.7,46,0.00,,,0.00,WUHU216HW,2013-07-21 18:21:00,
2013-07-21 13:26:00,95.0,72.3,29.77,WSW,248,3.6,4.7,48,0.00,,,0.00,WUHU216HW,2013-07-21 18:26:00,
2013-07-21 13:31:00,95.4,72.6,29.76,SW,225,4.7,4.7,48,0.00,,,0.00,WUHU216HW,2013-07-21 18:31:00,
2013-07-21 13:36:00,95.9,71.7,29.76,SSW,203,3.5,6.5,46,0.00,,,0.00,WUHU216HW,2013-07-21 18:36:00,
2013-07-21 13:41:00,96.3,70.7,29.76,SW,230,3.0,6.5,44,0.00,,,0.00,WUHU216HW,2013-07-21 18:41:00,
2013-07-21 13:46:00,96.3,71.5,29.76,SW,223,2.9,6.3,45,0.00,,,0.00,WUHU216HW,2013-07-21 18:46:00,
2013-07-21 13:51:00,95.4,69.9,29.76,West,279,2.1,4.0,44,0.00,,,0.00,WUHU216HW,2013-07-21 18:51:00,
2013-07-21 13:56:00,94.3,70.9,29.76,WNW,289,1.5,4.7,47,0.00,,,0.00,WUHU216HW,2013-07-21 18:56:00,
2013-07-21 14:01:00,93.8,70.4,29.75,West,270,1.8,4.7,47,0.00,,,0.00,WUHU216HW,2013-07-21 19:01:00,
2013-07-21 14:06:00,93.6,70.9,29.75,WSW,258,3.5,5.6,48,0.00,,,0.00,WUHU216HW,2013-07-21 19:06:00,
2013-07-21 14:11:00,92.9,70.2,29.75,West,267,2.0,5.6,48,0.00,,,0.00,WUHU216HW,2013-07-21 19:11:00,
2013-07-21 14:16:00,92.2,70.8,29.75,West,270,2.2,5.4,50,0.00,,,0.00,WUHU216HW,2013-07-21 19:16:00,
2013-07-21 14:21:00,92.5,71.2,29.75,West,270,3.1,6.0,50,0.00,,,0.00,WUHU216HW,2013-07-21 19:21:00,
2013-07-21 14:26:00,92.9,71.5,29.75,WSW,248,2.5,6.0,50,0.00,,,0.00,WUHU216HW,2013-07-21 19:26:00,
2013-07-21 14:31:00,93.2,71.8,29.75,WSW,252,1.9,4.3,50,0.00,,,0.00,WUHU216HW,2013-07-21 19:31:00,
2013-07-21 14:36:00,94.3,72.3,29.75,SSW,203,3.8,6.9,49,0.00,,,0.00,WUHU216HW,2013-07-21 19:36:00,
2013-07-21 14:41:00,95.8,73.6,29.75,SSE,167,0.9,6.9,49,0.00,,,0.00,WUHU216HW,2013-07-21 19:41:00,
2013-07-21 14:46:00,96.1,72.6,29.75,WSW,256,2.9,5.8,47,0.00,,,0.00,WUHU216HW,2013-07-21 19:46:00,
2013-07-21 14:51:00,95.8,71.7,29.75,WSW,237,2.5,5.8,46,0.00,,,0.00,WUHU216HW,2013-07-21 19:51:00,
2013-07-21 14:56:00,95.9,72.5,29.74,South,180,3.4,4.9,47,0.00,,,0.00,WUHU216HW,2013-07-21 19:56:00,
2013-07-21 15:01:00,96.3,72.1,29.74,WSW,248,3.1,4.3,46,0.00,,,0.00,WUHU216HW,2013-07-21 20:01:00,
2013-07-21 15:06:00,96.7,73.1,29.74,SSW,209,2.1,4.3,47,0.00,,,0.00,WUHU216HW,2013-07-21 20:06:00,
2013-07-21 15:11:00,96.1,71.9,29.74,South,182,1.8,3.6,46,0.00,,,0.00,WUHU216HW,2013-07-21 20:11:00,
2013-07-21 15:16:00,95.0,71.7,29.74,SE,135,0.9,3.1,47,0.00,,,0.00,WUHU216HW,2013-07-21 20:16:00,
2013-07-21 15:21:00,92.9,71.5,29.74,East,90,1.3,4.5,50,0.00,,,0.00,WUHU216HW,2013-07-21 20:21:00,
2013-07-21 15:26:00,93.1,71.6,29.74,SSW,203,1.6,4.5,50,0.00,,,0.00,WUHU216HW,2013-07-21 20:26:00,
2013-07-21 15:31:00,94.3,72.3,29.74,ESE,123,1.2,4.0,49,0.00,,,0.00,WUHU216HW,2013-07-21 20:31:00,
2013-07-21 15:36:00,95.9,72.5,29.74,WSW,237,1.3,4.5,47,0.00,,,0.00,WUHU216HW,2013-07-21 20:36:00,
2013-07-21 15:41:00,97.0,72.7,29.74,South,180,3.4,4.5,46,0.00,,,0.00,WUHU216HW,2013-07-21 20:41:00,
2013-07-21 15:46:00,98.1,72.4,29.74,SW,225,4.0,5.4,44,0.00,,,0.00,WUHU216HW,2013-07-21 20:46:00,
2013-07-21 15:51:00,97.4,71.1,29.74,SW,225,2.5,5.4,43,0.00,,,0.00,WUHU216HW,2013-07-21 20:51:00,
2013-07-21 15:56:00,95.9,71.7,29.74,SSE,147,1.4,3.4,46,0.00,,,0.00,WUHU216HW,2013-07-21 20:56:00,
2013-07-21 16:01:00,96.5,72.9,29.73,SW,218,2.8,4.7,47,0.00,,,0.00,WUHU216HW,2013-07-21 21:01:00,
2013-07-21 16:06:00,96.8,72.5,29.73,SW,225,2.5,4.7,46,0.00,,,0.00,WUHU216HW,2013-07-21 21:06:00,
2013-07-21 16:11:00,96.8,72.5,29.73,SE,135,0.7,4.0,46,0.00,,,0.00,WUHU216HW,2013-07-21 21:11:00,
2013-07-21 16:16:00,97.4,73.1,29.73,SW,225,2.9,4.3,46,0.00,,,0.00,WUHU216HW,2013-07-21 21:16:00,
2013-07-21 16:21:00,96.8,72.5,29.73,SSW,212,0.5,4.7,46,0.00,,,0.00,WUHU216HW,2013-07-21 21:21:00,
2013-07-21 16:26:00,97.2,72.9,29.73,ESE,113,1.1,4.7,46,0.00,,,0.00,WUHU216HW,2013-07-21 21:26:00,
2013-07-21 16:31:00,97.4,73.1,29.73,West,270,3.1,3.1,46,0.00,,,0.00,WUHU216HW,2013-07-21 21:31:00,
2013-07-21 16:36:00,97.7,72.1,29.73,ESE,116,1.0,4.7,44,0.00,,,0.00,WUHU216HW,2013-07-21 21:36:00,
2013-07-21 16:41:00,97.2,72.3,29.72,South,180,1.1,4.7,45,0.00,,,0.00,WUHU216HW,2013-07-21 21:41:00,
2013-07-21 16:46:00,97.2,72.3,29.72,SSW,202,1.3,3.4,45,0.00,,,0.00,WUHU216HW,2013-07-21 21:46:00,
2013-07-21 16:51:00,98.1,72.4,29.72,SSW,207,2.1,2.9,44,0.00,,,0.00,WUHU216HW,2013-07-21 21:51:00,
2013-07-21 16:56:00,98.3,71.9,29.73,SW,221,2.2,4.5,43,0.00,,,0.00,WUHU216HW,2013-07-21 21:56:00,
2013-07-21 17:01:00,97.0,72.7,29.73,SSW,212,1.1,4.5,46,0.00,,,0.00,WUHU216HW,2013-07-21 22:01:00,
2013-07-21 17:06:00,96.8,73.9,29.73,SSW,203,2.2,4.0,48,0.00,,,0.00,WUHU216HW,2013-07-21 22:06:00,
2013-07-21 17:11:00,97.6,73.9,29.73,SSW,198,2.4,4.3,47,0.00,,,0.00,WUHU216HW,2013-07-21 22:11:00,
2013-07-21 17:16:00,98.6,74.2,29.73,South,177,0.9,4.3,46,0.00,,,0.00,WUHU216HW,2013-07-21 22:16:00,
2013-07-21 17:21:00,98.3,73.2,29.72,SSE,158,1.8,3.1,45,0.00,,,0.00,WUHU216HW,2013-07-21 22:21:00,
2013-07-21 17:26:00,98.1,73.7,29.72,South,180,3.1,3.1,46,0.00,,,0.00,WUHU216HW,2013-07-21 22:26:00,
2013-07-21 17:31:00,98.5,73.4,29.72,SW,225,3.4,4.3,45,0.00,,,0.00,WUHU216HW,2013-07-21 22:31:00,
2013-07-21 17:36:00,99.0,72.6,29.72,SW,217,1.5,4.5,43,0.00,,,0.00,WUHU216HW,2013-07-21 22:36:00,
2013-07-21 17:41:00,98.5,72.0,29.72,ESE,113,2.5,4.9,43,0.00,,,0.00,WUHU216HW,2013-07-21 22:41:00,
2013-07-21 17:46:00,94.7,71.3,29.73,ENE,68,3.6,5.4,47,0.00,,,0.00,WUHU216HW,2013-07-21 22:46:00,
2013-07-21 17:51:00,92.7,71.4,29.72,NE,45,3.6,5.8,50,0.00,,,0.00,WUHU216HW,2013-07-21 22:51:00,
2013-07-21 17:56:00,91.1,70.9,29.72,NE,56,3.2,5.8,52,0.00,,,0.00,WUHU216HW,2013-07-21 22:56:00,
2013-07-21 18:01:00,90.4,70.8,29.72,East,90,4.9,4.9,53,0.00,,,0.00,WUHU216HW,2013-07-21 23:01:00,
2013-07-21 18:06:00,89.5,70.6,29.73,East,90,5.1,5.1,54,0.00,,,0.00,WUHU216HW,2013-07-21 23:06:00,
2013-07-21 18:11:00,88.2,70.0,29.73,ENE,77,2.6,5.1,55,0.00,,,0.00,WUHU216HW,2013-07-21 23:11:00,
2013-07-21 18:16:00,87.5,69.8,29.73,ENE,68,3.6,4.3,56,0.00,,,0.00,WUHU216HW,2013-07-21 23:16:00,
2013-07-21 18:21:00,87.8,70.7,29.73,East,90,2.7,3.6,57,0.00,,,0.00,WUHU216HW,2013-07-21 23:21:00,
2013-07-21 18:26:00,88.2,70.6,29.73,East,90,2.9,3.6,56,0.00,,,0.00,WUHU216HW,2013-07-21 23:26:00,
2013-07-21 18:31:00,87.3,69.7,29.73,East,90,4.0,4.3,56,0.00,,,0.00,WUHU216HW,2013-07-21 23:31:00,
2013-07-21 18:36:00,86.4,68.9,29.73,East,90,1.8,4.3,56,0.00,,,0.00,WUHU216HW,2013-07-21 23:36:00,
2013-07-21 18:41:00,86.0,68.5,29.73,East,99,2.4,4.0,56,0.00,,,0.00,WUHU216HW,2013-07-21 23:41:00,
2013-07-21 18:46:00,85.7,68.7,29.72,ENE,68,3.4,6.3,57,0.00,,,0.00,WUHU216HW,2013-07-21 23:46:00,
2013-07-21 18:51:00,85.1,69.2,29.73,East,96,3.9,6.5,59,0.00,,,0.00,WUHU216HW,2013-07-21 23:51:00,
2013-07-21 18:56:00,84.8,69.4,29.72,East,90,3.8,6.5,60,0.00,,,0.00,WUHU216HW,2013-07-21 23:56:00,
2013-07-21 19:01:00,84.4,69.6,29.72,ESE,102,2.5,4.9,61,0.00,,,0.00,WUHU216HW,2013-07-22 00:01:00,
2013-07-21 19:06:00,84.6,69.3,29.73,East,97,2.2,5.1,60,0.00,,,0.00,WUHU216HW,2013-07-22 00:06:00,
2013-07-21 19:11:00,83.0,59.4,29.73,East,100,2.3,5.1,45,0.07,,,0.07,WUHU216HW,2013-07-22 00:11:00,
2013-07-21 19:16:00,81.4,51.0,29.74,East,90,3.1,4.7,35,0.07,,,0.07,WUHU216HW,2013-07-22 00:16:00,
2013-07-21 19:21:00,80.6,45.4,29.73,ESE,114,1.5,4.3,29,0.07,,,0.07,WUHU216HW,2013-07-22 00:21:00,
2013-07-21 19:26:00,80.3,50.0,29.73,East,99,1.4,3.6,35,0.07,,,0.07,WUHU216HW,2013-07-22 00:26:00,
2013-07-21 19:31:00,80.3,49.2,29.73,ESE,113,1.8,2.9,34,0.08,,,0.08,WUHU216HW,2013-07-22 00:31:00,
2013-07-21 19:36:00,79.9,48.9,29.73,NE,45,1.1,2.7,34,0.08,,,0.08,WUHU216HW,2013-07-22 00:36:00,
2013-07-21 19:41:00,79.6,48.6,29.74,East,90,0.7,2.7,34,0.08,,,0.08,WUHU216HW,2013-07-22 00:41:00,
2013-07-21 19:46:00,79.4,43.2,29.75,ENE,68,0.2,2.0,28,0.08,,,0.08,WUHU216HW,2013-07-22 00:46:00,
2013-07-21 19:51:00,79.4,41.1,29.76,ENE,68,1.1,2.0,26,0.08,,,0.08,WUHU216HW,2013-07-22 00:51:00,
2013-07-21 19:56:00,79.6,41.3,29.76,ENE,68,0.7,1.6,26,0.08,,,0.08,WUHU216HW,2013-07-22 00:56:00,
2013-07-21 20:01:00,80.3,41.9,29.76,ENE,68,0.3,1.1,26,0.09,,,0.09,WUHU216HW,2013-07-22 01:01:00,
2013-07-21 20:06:00,81.9,42.2,29.75,SW,225,0.7,1.3,25,0.09,,,0.09,WUHU216HW,2013-07-22 01:06:00,
2013-07-21 20:11:00,82.6,48.1,29.75,SW,225,0.5,1.3,30,0.02,,,0.09,WUHU216HW,2013-07-22 01:11:00,
2013-07-21 20:16:00,82.4,48.7,29.75,SSW,208,0.9,1.6,31,0.02,,,0.09,WUHU216HW,2013-07-22 01:16:00,
2013-07-21 20:21:00,81.9,49.8,29.75,SW,218,0.8,1.6,33,0.02,,,0.09,WUHU216HW,2013-07-22 01:21:00,
2013-07-21 20:26:00,81.4,49.3,29.75,South,180,0.6,2.2,33,0.02,,,0.09,WUHU216HW,2013-07-22 01:26:00,
2013-07-21 20:31:00,80.6,52.7,29.75,SSW,203,1.1,2.2,38,0.01,,,0.09,WUHU216HW,2013-07-22 01:31:00,
2013-07-21 20:36:00,80.1,52.1,29.75,SSW,203,1.1,2.2,38,0.01,,,0.09,WUHU216HW,2013-07-22 01:36:00,
2013-07-21 20:41:00,79.4,53.0,29.75,SSE,158,1.3,2.2,40,0.01,,,0.09,WUHU216HW,2013-07-22 01:41:00,
2013-07-21 20:46:00,78.8,52.6,29.74,SW,225,1.3,2.2,40,0.01,,,0.09,WUHU216HW,2013-07-22 01:46:00,
2013-07-21 20:51:00,78.1,51.1,29.74,SW,225,0.7,1.8,39,0.01,,,0.09,WUHU216HW,2013-07-22 01:51:00,
2013-07-21 20:56:00,77.6,49.1,29.74,SW,225,0.4,1.3,37,0.01,,,0.09,WUHU216HW,2013-07-22 01:56:00,
2013-07-21 21:01:00,77.2,47.4,29.74,SW,225,0.9,0.9,35,0.00,,,0.09,WUHU216HW,2013-07-22 02:01:00,
2013-07-21 21:06:00,76.9,45.5,29.74,WSW,248,2.9,2.9,33,0.00,,,0.09,WUHU216HW,2013-07-22 02:06:00,
2013-07-21 21:11:00,76.7,45.4,29.74,SSW,203,1.3,2.9,33,0.00,,,0.09,WUHU216HW,2013-07-22 02:11:00,
2013-07-21 21:16:00,76.7,45.4,29.75,SSW,203,0.9,2.9,33,0.00,,,0.09,WUHU216HW,2013-07-22 02:16:00,
2013-07-21 21:21:00,76.3,45.7,29.75,SSW,203,0.2,1.3,34,0.00,,,0.09,WUHU216HW,2013-07-22 02:21:00,
2013-07-21 21:26:00,76.3,45.0,29.75,SSW,203,1.1,1.1,33,0.00,,,0.09,WUHU216HW,2013-07-22 02:26:00,
2013-07-21 21:31:00,76.1,45.6,29.75,SSW,203,0.0,1.1,34,0.00,,,0.09,WUHU216HW,2013-07-22 02:31:00,
2013-07-21 21:36:00,76.0,45.5,29.75,SSW,203,0.0,1.1,34,0.00,,,0.09,WUHU216HW,2013-07-22 02:36:00,
2013-07-21 21:41:00,75.8,43.0,29.75,SSW,203,0.0,0.0,31,0.00,,,0.09,WUHU216HW,2013-07-22 02:41:00,
2013-07-21 21:46:00,75.6,42.8,29.75,SSW,203,0.0,0.0,31,0.00,,,0.09,WUHU216HW,2013-07-22 02:46:00,
2013-07-21 21:51:00,75.6,42.1,29.75,SSW,203,0.0,0.0,30,0.00,,,0.09,WUHU216HW,2013-07-22 02:51:00,
2013-07-21 21:56:00,75.6,42.8,29.75,SSW,203,0.0,0.0,31,0.00,,,0.09,WUHU216HW,2013-07-22 02:56:00,
2013-07-21 22:01:00,75.6,43.6,29.76,SSW,203,0.0,0.0,32,0.00,,,0.09,WUHU216HW,2013-07-22 03:01:00,
2013-07-21 22:06:00,75.6,42.8,29.76,SSW,203,0.0,0.0,31,0.00,,,0.09,WUHU216HW,2013-07-22 03:06:00,
2013-07-21 22:11:00,75.6,42.8,29.76,SSW,203,0.0,0.0,31,0.00,,,0.09,WUHU216HW,2013-07-22 03:11:00,
2013-07-21 22:16:00,75.2,44.0,29.76,SSW,203,0.8,1.1,33,0.00,,,0.09,WUHU216HW,2013-07-22 03:16:00,
2013-07-21 22:21:00,74.9,37.4,29.76,SSW,203,0.2,1.1,26,0.00,,,0.09,WUHU216HW,2013-07-22 03:21:00,
2013-07-21 22:26:00,75.1,39.5,29.76,SSW,203,0.0,0.7,28,0.00,,,0.09,WUHU216HW,2013-07-22 03:26:00,
2013-07-21 22:31:00,75.2,40.8,29.76,SSW,203,0.0,0.0,29,0.00,,,0.09,WUHU216HW,2013-07-22 03:31:00,
2013-07-21 22:36:00,75.4,42.7,29.76,SSW,203,0.0,0.0,31,0.00,,,0.09,WUHU216HW,2013-07-22 03:36:00,
2013-07-21 22:41:00,75.6,43.6,29.76,SSW,203,0.0,0.0,32,0.00,,,0.09,WUHU216HW,2013-07-22 03:41:00,
2013-07-21 22:46:00,75.6,44.4,29.76,SSW,203,0.0,0.0,33,0.00,,,0.09,WUHU216HW,2013-07-22 03:46:00,
2013-07-21 22:51:00,75.6,45.1,29.76,SSW,203,0.0,0.0,34,0.00,,,0.09,WUHU216HW,2013-07-22 03:51:00,
2013-07-21 22:56:00,75.6,45.1,29.77,SSW,203,0.0,0.0,34,0.00,,,0.09,WUHU216HW,2013-07-22 03:56:00,
2013-07-21 23:01:00,75.6,44.4,29.77,SSW,203,0.0,0.0,33,0.00,,,0.09,WUHU216HW,2013-07-22 04:01:00,
2013-07-21 23:06:00,75.6,45.1,29.77,SSW,203,0.0,0.0,34,0.00,,,0.09,WUHU216HW,2013-07-22 04:06:00,
2013-07-21 23:11:00,75.6,45.1,29.77,SSW,203,0.0,0.0,34,0.00,,,0.09,WUHU216HW,2013-07-22 04:11:00,
2013-07-21 23:16:00,75.6,45.9,29.77,SSW,203,0.0,0.0,35,0.00,,,0.09,WUHU216HW,2013-07-22 04:16:00,
2013-07-21 23:21:00,75.4,45.7,29.77,SSW,203,0.0,0.0,35,0.00,,,0.09,WUHU216HW,2013-07-22 04:21:00,
2013-07-21 23:26:00,75.2,47.1,29.77,SSW,203,0.0,0.0,37,0.00,,,0.09,WUHU216HW,2013-07-22 04:26:00,
2013-07-21 23:31:00,74.9,46.7,29.77,SSW,203,0.0,0.0,37,0.00,,,0.09,WUHU216HW,2013-07-22 04:31:00,
2013-07-21 23:36:00,74.5,43.4,29.77,SSW,203,0.0,0.0,33,0.00,,,0.09,WUHU216HW,2013-07-22 04:36:00,
2013-07-21 23:41:00,74.5,42.7,29.77,SSW,203,0.3,0.4,32,0.00,,,0.09,WUHU216HW,2013-07-22 04:41:00,
2013-07-21 23:46:00,74.5,42.7,29.77,SSW,203,0.7,0.9,32,0.00,,,0.09,WUHU216HW,2013-07-22 04:46:00,
2013-07-21 23:51:00,74.3,43.2,29.77,SSW,203,0.5,1.1,33,0.00,,,0.09,WUHU216HW,2013-07-22 04:51:00,
2013-07-21 23:56:00,74.0,41.4,29.77,SSW,203,0.7,1.1,31,0.00,,,0.09,WUHU216HW,2013-07-22 04:56:00,